createdAt,value
2023-04-23T00:02:23.261Z,9.25
2023-04-23T00:04:53.157Z,9.15
2023-04-23T00:07:22.433Z,6.40
2023-04-23T00:09:54.359Z,8.68
2023-04-23T00:12:22.669Z,9.20
2023-04-23T00:14:50.845Z,7.18
2023-04-23T00:17:20.255Z,6.03
2023-04-23T00:19:48.098Z,8.87
2023-04-23T00:22:17.399Z,6.05
2023-04-23T00:24:45.665Z,8.15
2023-04-23T00:27:14.054Z,6.30
2023-04-23T00:29:43.609Z,6.28
2023-04-23T00:32:11.781Z,6.10
2023-04-23T00:34:39.851Z,5.75
2023-04-23T00:37:08.323Z,5.75
2023-04-23T00:39:38.272Z,5.80
2023-04-23T00:42:11.843Z,5.93
2023-04-23T00:44:42.292Z,5.93
2023-04-23T00:47:12.481Z,5.95
2023-04-23T00:49:41.036Z,6.53
2023-04-23T00:52:08.975Z,6.65
2023-04-23T00:54:36.722Z,6.32
2023-04-23T00:57:05.228Z,9.33
2023-04-23T00:59:33.209Z,7.72
2023-04-23T01:02:01.654Z,8.02
2023-04-23T01:04:31.523Z,6.95
2023-04-23T01:07:00.612Z,6.30
2023-04-23T01:09:28.852Z,6.53
2023-04-23T01:11:58.813Z,7.85
2023-04-23T01:14:27.241Z,9.07
2023-04-23T01:16:55.209Z,7.30
2023-04-23T01:19:23.265Z,9.32
2023-04-23T01:21:52.086Z,7.27
2023-04-23T01:24:23.117Z,6.18
2023-04-23T01:26:51.385Z,8.88
2023-04-23T01:29:19.441Z,6.82
2023-04-23T01:31:48.585Z,6.30
2023-04-23T01:34:16.883Z,7.13
2023-04-23T01:36:47.002Z,7.18
2023-04-23T01:39:15.030Z,8.82
2023-04-23T01:41:43.990Z,8.50
2023-04-23T01:44:12.480Z,6.38
2023-04-23T01:46:40.440Z,8.03
2023-04-23T01:49:08.780Z,7.00
2023-04-23T01:51:36.846Z,9.15
2023-04-23T01:54:04.751Z,8.88
2023-04-23T01:56:35.621Z,5.88
2023-04-23T01:59:07.901Z,7.43
2023-04-23T02:01:48.318Z,6.45
2023-04-23T02:04:17.568Z,7.68
2023-04-23T02:06:48.062Z,7.00
2023-04-23T02:09:16.265Z,9.63
2023-04-23T02:11:44.502Z,9.70
2023-04-23T02:14:12.945Z,6.38
2023-04-23T02:16:41.353Z,8.15
2023-04-23T02:19:09.238Z,6.28
2023-04-23T02:21:37.096Z,8.85
2023-04-23T02:24:05.924Z,6.50
2023-04-23T02:26:34.101Z,8.90
2023-04-23T02:29:02.037Z,8.73
2023-04-23T02:31:30.022Z,7.20
2023-04-23T02:33:58.487Z,7.68
2023-04-23T02:36:28.776Z,14.70
2023-04-23T02:38:56.722Z,8.95
2023-04-23T02:41:24.814Z,8.00
2023-04-23T02:43:52.736Z,8.73
2023-04-23T02:46:20.751Z,9.02
2023-04-23T02:48:48.823Z,9.50
2023-04-23T02:51:17.113Z,7.22
2023-04-23T02:53:44.919Z,7.30
2023-04-23T02:56:12.817Z,8.75
2023-04-23T02:58:40.842Z,7.57
2023-04-23T03:01:08.762Z,7.57
2023-04-23T03:03:37.434Z,9.43
2023-04-23T03:06:07.233Z,9.32
2023-04-23T03:08:35.362Z,8.02
2023-04-23T03:11:03.289Z,6.85
2023-04-23T03:13:31.646Z,8.63
2023-04-23T03:16:00.654Z,8.02
2023-04-23T03:18:28.888Z,6.43
2023-04-23T03:21:00.015Z,8.35
2023-04-23T03:23:33.594Z,6.53
2023-04-23T03:26:16.428Z,6.90
2023-04-23T03:28:49.688Z,7.88
2023-04-23T03:31:27.916Z,6.60
2023-04-23T03:34:02.953Z,8.27
2023-04-23T03:36:41.455Z,7.72
2023-04-23T03:39:12.990Z,8.87
2023-04-23T03:41:51.575Z,7.10
2023-04-23T03:44:28.066Z,7.88
2023-04-23T03:46:58.057Z,7.68
2023-04-23T03:49:29.384Z,6.78
2023-04-23T03:52:04.739Z,7.07
2023-04-23T03:54:42.405Z,6.38
2023-04-23T03:57:32.672Z,7.30
2023-04-23T04:00:26.515Z,5.65
2023-04-23T04:02:58.772Z,9.75
2023-04-23T04:05:30.737Z,8.23
2023-04-23T04:08:03.241Z,7.65
2023-04-23T04:10:31.590Z,6.38
2023-04-23T04:12:59.476Z,8.75
2023-04-23T04:15:27.691Z,7.03
2023-04-23T04:17:55.670Z,8.70
2023-04-23T04:20:23.631Z,8.55
2023-04-23T04:22:51.484Z,8.10
2023-04-23T04:25:19.546Z,7.15
2023-04-23T04:27:51.651Z,6.78
2023-04-23T04:30:22.035Z,8.40
2023-04-23T04:32:51.443Z,7.20
2023-04-23T04:35:19.346Z,6.80
2023-04-23T04:37:47.381Z,7.78
2023-04-23T04:40:15.206Z,8.75
2023-04-23T04:42:43.188Z,8.43
2023-04-23T04:45:12.063Z,6.50
2023-04-23T04:47:43.815Z,8.20
2023-04-23T04:50:14.780Z,6.97
2023-04-23T04:52:44.344Z,8.57
2023-04-23T04:55:12.179Z,9.23
2023-04-23T04:57:40.097Z,5.65
2023-04-23T05:00:24.094Z,8.13
2023-04-23T05:02:53.148Z,7.97
2023-04-23T05:05:21.744Z,7.32
2023-04-23T05:07:49.987Z,5.10
2023-04-23T05:10:18.007Z,6.53
2023-04-23T05:12:46.138Z,7.22
2023-04-23T05:15:15.302Z,6.47
2023-04-23T05:17:44.386Z,5.75
2023-04-23T05:20:12.736Z,5.63
2023-04-23T05:22:42.298Z,8.38
2023-04-23T05:25:12.529Z,5.38
2023-04-23T05:27:41.311Z,6.57
2023-04-23T05:30:11.439Z,9.55
2023-04-23T05:32:40.179Z,9.73
2023-04-23T05:35:08.554Z,6.88
2023-04-23T05:37:36.579Z,5.93
2023-04-23T05:40:06.988Z,5.70
2023-04-23T05:42:38.795Z,6.10
2023-04-23T05:45:08.850Z,7.47
2023-04-23T05:47:37.763Z,6.07
2023-04-23T05:50:07.137Z,6.78
2023-04-23T05:52:37.838Z,6.30
2023-04-23T05:55:08.350Z,7.97
2023-04-23T05:57:40.058Z,11.83
2023-04-23T06:00:14.662Z,8.55
2023-04-23T06:02:43.096Z,7.78
2023-04-23T06:05:11.303Z,9.73
2023-04-23T06:07:41.493Z,8.93
2023-04-23T06:10:10.086Z,8.73
2023-04-23T06:12:39.729Z,8.10
2023-04-23T06:15:09.307Z,9.57
2023-04-23T06:17:37.569Z,11.27
2023-04-23T06:20:06.232Z,9.55
2023-04-23T06:22:34.144Z,9.87
2023-04-23T06:25:01.935Z,7.25
2023-04-23T06:27:29.973Z,9.82
2023-04-23T06:30:03.058Z,7.50
2023-04-23T06:32:31.199Z,7.10
2023-04-23T06:35:01.866Z,9.03
2023-04-23T06:37:32.022Z,10.02
2023-04-23T06:40:00.798Z,7.65
2023-04-23T06:42:28.690Z,7.10
2023-04-23T06:45:17.279Z,7.38
2023-04-23T06:47:50.166Z,7.47
2023-04-23T06:50:21.453Z,9.80
2023-04-23T06:52:49.600Z,9.60
2023-04-23T06:55:17.442Z,8.25
2023-04-23T06:57:45.850Z,10.25
2023-04-23T07:00:14.230Z,11.03
2023-04-23T07:02:43.729Z,11.32
2023-04-23T07:05:12.161Z,11.20
2023-04-23T07:07:41.004Z,8.25
2023-04-23T07:10:10.349Z,7.03
2023-04-23T07:12:39.670Z,10.93
2023-04-23T07:15:09.297Z,10.30
2023-04-23T07:17:39.280Z,8.82
2023-04-23T07:20:09.205Z,8.30
2023-04-23T07:22:37.264Z,7.93
2023-04-23T07:25:06.163Z,8.30
2023-04-23T07:27:34.113Z,9.90
2023-04-23T07:30:02.581Z,15.07
2023-04-23T07:32:30.522Z,11.65
2023-04-23T07:34:58.579Z,12.13
2023-04-23T07:37:26.685Z,8.17
2023-04-23T07:39:54.474Z,9.88
2023-04-23T07:42:22.438Z,11.82
2023-04-23T07:44:50.333Z,12.55
2023-04-23T07:47:18.246Z,7.97
2023-04-23T07:49:46.140Z,11.17
2023-04-23T07:52:14.242Z,9.40
2023-04-23T07:54:42.100Z,9.77
2023-04-23T07:57:10.947Z,12.98
2023-04-23T07:59:41.941Z,10.75
2023-04-23T08:02:10.431Z,14.83
2023-04-23T08:04:41.526Z,11.52
2023-04-23T08:07:09.454Z,14.02
2023-04-23T08:09:37.359Z,10.27
2023-04-23T08:12:05.682Z,11.70
2023-04-23T08:14:33.638Z,13.10
2023-04-23T08:17:06.063Z,9.88
2023-04-23T08:19:34.151Z,12.68
2023-04-23T08:22:02.023Z,10.25
2023-04-23T08:24:30.263Z,10.45
2023-04-23T08:27:01.016Z,14.63
2023-04-23T08:29:29.071Z,10.38
2023-04-23T08:31:57.119Z,11.98
2023-04-23T08:34:25.034Z,12.10
2023-04-23T08:36:52.924Z,11.65
2023-04-23T08:39:21.022Z,9.80
2023-04-23T08:41:56.109Z,9.77
2023-04-23T08:44:26.355Z,11.00
2023-04-23T08:46:56.408Z,17.35
2023-04-23T08:49:24.661Z,14.98
2023-04-23T08:51:59.438Z,13.60
2023-04-23T08:54:28.961Z,8.75
2023-04-23T08:56:58.758Z,9.90
2023-04-23T08:59:27.741Z,9.38
2023-04-23T09:01:57.233Z,9.77
2023-04-23T09:04:26.374Z,10.67
2023-04-23T09:06:54.791Z,12.02
2023-04-23T09:09:24.186Z,11.07
2023-04-23T09:11:54.201Z,11.80
2023-04-23T09:14:26.026Z,9.05
2023-04-23T09:16:54.444Z,8.90
2023-04-23T09:19:23.192Z,11.20
2023-04-23T09:21:52.255Z,10.70
2023-04-23T09:24:23.535Z,9.65
2023-04-23T09:26:52.937Z,11.68
2023-04-23T09:29:23.766Z,9.60
2023-04-23T09:32:10.797Z,7.75
2023-04-23T09:34:38.810Z,10.23
2023-04-23T09:37:11.761Z,9.60
2023-04-23T09:39:40.556Z,10.43
2023-04-23T09:42:11.288Z,9.60
2023-04-23T09:44:39.566Z,10.77
2023-04-23T09:47:12.418Z,7.45
2023-04-23T09:49:48.325Z,8.25
2023-04-23T09:52:16.511Z,14.32
2023-04-23T09:54:46.891Z,11.73
2023-04-23T09:57:15.039Z,9.95
2023-04-23T09:59:48.927Z,8.85
2023-04-23T10:02:27.915Z,10.25
2023-04-23T10:05:06.706Z,8.30
2023-04-23T10:07:43.456Z,6.60
2023-04-23T10:10:12.290Z,6.60
2023-04-23T10:12:54.369Z,10.95
2023-04-23T10:15:27.906Z,7.88
2023-04-23T10:17:56.787Z,7.78
2023-04-23T10:20:26.390Z,8.33
2023-04-23T10:22:57.057Z,8.18
2023-04-23T10:25:26.449Z,7.28
2023-04-23T10:27:58.547Z,8.60
2023-04-23T10:30:27.410Z,9.35
2023-04-23T10:32:57.530Z,10.00
2023-04-23T10:35:28.662Z,6.32
2023-04-23T10:37:56.811Z,7.78
2023-04-23T10:40:32.766Z,8.05
2023-04-23T10:43:01.578Z,8.70
2023-04-23T10:45:32.835Z,11.43
2023-04-23T10:48:01.057Z,9.40
2023-04-23T10:50:31.525Z,8.02
2023-04-23T10:52:59.667Z,7.57
2023-04-23T10:55:29.329Z,8.88
2023-04-23T10:58:03.242Z,8.27
2023-04-23T11:00:48.931Z,8.02
2023-04-23T11:03:32.639Z,8.95
2023-04-23T11:06:04.910Z,7.15
2023-04-23T11:08:35.401Z,10.23
2023-04-23T11:11:08.896Z,8.73
2023-04-23T11:13:37.163Z,8.88
2023-04-23T11:16:22.183Z,9.32
2023-04-23T11:19:05.459Z,9.02
2023-04-23T11:22:04.225Z,10.90
2023-04-23T11:24:34.987Z,8.80
2023-04-23T11:27:07.457Z,11.07
2023-04-23T11:29:39.384Z,9.00
2023-04-23T11:32:14.666Z,7.88
2023-04-23T11:34:44.527Z,6.95
2023-04-23T11:37:16.212Z,7.77
2023-04-23T11:39:46.235Z,7.93
2023-04-23T11:42:15.600Z,10.30
2023-04-23T11:44:45.896Z,8.27
2023-04-23T11:47:16.703Z,10.80
2023-04-23T11:49:46.126Z,13.13
2023-04-23T11:52:15.580Z,14.35
2023-04-23T11:54:43.610Z,9.75
2023-04-23T11:57:12.219Z,10.95
2023-04-23T11:59:40.548Z,8.45
2023-04-23T12:02:08.576Z,9.10
2023-04-23T12:04:37.492Z,14.63
2023-04-23T12:07:16.040Z,8.18
2023-04-23T12:09:58.838Z,6.80
2023-04-23T12:12:35.737Z,8.88
2023-04-23T12:15:09.756Z,7.20
2023-04-23T12:17:37.722Z,6.15
2023-04-23T12:20:09.507Z,6.10
2023-04-23T12:22:37.505Z,8.80
2023-04-23T12:25:10.000Z,9.07
2023-04-23T12:27:42.909Z,10.53
2023-04-23T12:30:12.754Z,7.63
2023-04-23T12:32:42.058Z,6.13
2023-04-23T12:35:11.528Z,6.97
2023-04-23T12:37:39.571Z,6.90
2023-04-23T12:40:08.319Z,6.07
2023-04-23T12:42:37.263Z,7.28
2023-04-23T12:45:10.593Z,5.10
2023-04-23T12:47:38.829Z,6.03
2023-04-23T12:50:07.283Z,5.97
2023-04-23T12:52:35.262Z,8.27
2023-04-23T12:55:05.359Z,6.47
2023-04-23T12:57:33.402Z,6.75
2023-04-23T13:00:01.317Z,5.60
2023-04-23T13:02:29.814Z,6.25
2023-04-23T13:05:01.443Z,9.70
2023-04-23T13:07:29.603Z,6.82
2023-04-23T13:09:59.772Z,7.30
2023-04-23T13:12:27.901Z,5.25
2023-04-23T13:14:55.934Z,6.90
2023-04-23T13:17:25.683Z,5.43
2023-04-23T13:19:55.043Z,6.28
2023-04-23T13:22:23.471Z,8.07
2023-04-23T13:24:51.198Z,5.50
2023-04-23T13:27:19.130Z,5.45
2023-04-23T13:29:47.079Z,5.30
2023-04-23T13:32:16.737Z,5.65
2023-04-23T13:34:44.623Z,6.20
2023-04-23T13:37:12.689Z,7.38
2023-04-23T13:39:41.959Z,6.13
2023-04-23T13:42:10.499Z,5.53
2023-04-23T13:44:38.507Z,5.93
2023-04-23T13:47:06.437Z,5.47
2023-04-23T13:49:34.273Z,7.00
2023-04-23T13:52:07.216Z,7.82
2023-04-23T13:54:38.574Z,7.80
2023-04-23T13:57:07.072Z,5.35
2023-04-23T13:59:34.848Z,8.60
2023-04-23T14:02:02.836Z,7.68
2023-04-23T14:04:30.860Z,5.68
2023-04-23T14:06:58.782Z,7.80
2023-04-23T14:09:26.865Z,6.38
2023-04-23T14:11:55.218Z,6.10
2023-04-23T14:14:23.012Z,4.40
2023-04-23T14:16:51.559Z,7.72
2023-04-23T14:19:19.554Z,6.23
2023-04-23T14:21:47.749Z,7.68
2023-04-23T14:24:24.600Z,8.10
2023-04-23T14:26:52.518Z,9.43
2023-04-23T14:29:33.193Z,8.73
2023-04-23T14:32:01.760Z,8.60
2023-04-23T14:34:29.852Z,8.27
2023-04-23T14:36:58.009Z,6.80
2023-04-23T14:39:27.293Z,7.20
2023-04-23T14:41:56.059Z,9.15
2023-04-23T14:44:25.462Z,7.43
2023-04-23T14:46:53.795Z,6.57
2023-04-23T14:49:22.050Z,7.65
2023-04-23T14:51:51.375Z,8.10
2023-04-23T14:54:30.367Z,7.90
2023-04-23T14:56:59.739Z,8.90
2023-04-23T14:59:32.621Z,8.38
2023-04-23T15:02:01.518Z,9.55
2023-04-23T15:04:32.926Z,10.93
2023-04-23T15:07:04.364Z,9.10
2023-04-23T15:09:34.107Z,9.93
2023-04-23T15:12:04.656Z,5.80
2023-04-23T15:14:37.004Z,6.28
2023-04-23T15:17:05.176Z,8.35
2023-04-23T15:19:33.275Z,7.60
2023-04-23T15:22:01.222Z,7.40
2023-04-23T15:24:29.136Z,7.03
2023-04-23T15:26:59.630Z,5.88
2023-04-23T15:29:27.945Z,6.05
2023-04-23T15:31:58.665Z,7.65
2023-04-23T15:34:26.786Z,7.07
2023-04-23T15:36:54.734Z,7.63
2023-04-23T15:39:22.823Z,8.23
2023-04-23T15:41:52.280Z,6.13
2023-04-23T15:44:20.724Z,8.15
2023-04-23T15:46:57.735Z,7.23
2023-04-23T15:49:25.929Z,7.55
2023-04-23T15:51:54.393Z,6.20
2023-04-23T15:54:22.724Z,9.23
2023-04-23T15:56:50.701Z,9.18
2023-04-23T15:59:18.677Z,5.93
2023-04-23T16:01:46.718Z,8.63
2023-04-23T16:04:15.037Z,7.35
2023-04-23T16:06:43.781Z,6.15
2023-04-23T16:09:11.988Z,6.65
2023-04-23T16:11:40.104Z,5.43
2023-04-23T16:14:10.270Z,6.63
2023-04-23T16:16:39.330Z,8.07
2023-04-23T16:19:07.256Z,9.05
2023-04-23T16:21:35.355Z,8.23
2023-04-23T16:24:04.190Z,6.17
2023-04-23T16:26:32.146Z,8.07
2023-04-23T16:31:31.285Z,6.68
2023-04-23T16:33:59.193Z,5.18
2023-04-23T16:36:27.212Z,6.27
2023-04-23T16:38:55.025Z,5.57
2023-04-23T16:41:22.926Z,6.15
2023-04-23T16:43:50.873Z,6.65
2023-04-23T16:46:19.258Z,5.97
2023-04-23T16:48:47.393Z,6.10
2023-04-23T16:51:18.284Z,7.15
2023-04-23T16:53:46.355Z,6.10
2023-04-23T16:56:14.271Z,5.82
2023-04-23T16:58:42.428Z,6.70
2023-04-23T17:01:11.444Z,8.00
2023-04-23T17:03:39.638Z,7.68
2023-04-23T17:06:26.425Z,6.32
2023-04-23T17:08:55.504Z,6.95
2023-04-23T17:11:23.462Z,6.00
2023-04-23T17:13:52.532Z,6.63
2023-04-23T17:16:20.808Z,6.15
2023-04-23T17:18:49.230Z,8.13
2023-04-23T17:21:17.504Z,7.88
2023-04-23T17:23:46.498Z,5.55
2023-04-23T17:26:15.546Z,5.63
2023-04-23T17:28:43.715Z,6.88
2023-04-23T17:31:11.877Z,7.35
2023-04-23T17:33:40.228Z,7.57
2023-04-23T17:36:08.354Z,5.57
2023-04-23T17:38:36.464Z,6.43
2023-04-23T17:41:04.438Z,6.85
2023-04-23T17:43:35.371Z,7.85
2023-04-23T17:46:03.915Z,8.00
2023-04-23T17:48:31.848Z,7.57
2023-04-23T17:50:59.908Z,8.37
2023-04-23T17:53:27.773Z,10.50
2023-04-23T17:55:59.868Z,9.25
2023-04-23T17:58:27.898Z,8.63
2023-04-23T18:00:56.458Z,9.38
2023-04-23T18:03:25.008Z,7.60
2023-04-23T18:05:53.150Z,7.72
2023-04-23T18:08:21.686Z,7.20
2023-04-23T18:10:49.854Z,7.30
2023-04-23T18:13:18.722Z,8.55
2023-04-23T18:15:50.366Z,7.10
2023-04-23T18:18:19.525Z,7.45
2023-04-23T18:20:47.800Z,7.05
2023-04-23T18:23:15.906Z,6.93
2023-04-23T18:25:43.842Z,7.47
2023-04-23T18:28:11.955Z,6.60
2023-04-23T18:30:40.206Z,7.22
2023-04-23T18:33:11.751Z,7.75
2023-04-23T18:35:43.722Z,9.85
2023-04-23T18:38:23.783Z,6.63
2023-04-23T18:40:52.051Z,6.70
2023-04-23T18:43:20.442Z,8.45
2023-04-23T18:45:48.468Z,10.32
2023-04-23T18:48:34.333Z,8.13
2023-04-23T18:51:24.999Z,10.57
2023-04-23T18:53:55.547Z,7.37
2023-04-23T18:56:25.454Z,11.88
2023-04-23T18:58:54.842Z,10.13
2023-04-23T19:01:25.279Z,7.95
2023-04-23T19:03:58.025Z,8.93
2023-04-23T19:06:30.726Z,8.53
2023-04-23T19:09:01.018Z,11.63
2023-04-23T19:11:35.328Z,12.48
2023-04-23T19:14:04.903Z,15.85
2023-04-23T19:16:34.524Z,10.82
2023-04-23T19:19:04.174Z,15.93
2023-04-23T19:21:33.933Z,14.20
2023-04-23T19:24:02.944Z,14.40
2023-04-23T19:26:31.794Z,20.17
2023-04-23T19:28:59.739Z,16.13
2023-04-23T19:31:29.463Z,13.90
2023-04-23T19:33:58.132Z,15.40
2023-04-23T19:36:26.954Z,11.50
2023-04-23T19:38:55.031Z,13.27
2023-04-23T19:41:22.911Z,12.13
2023-04-23T19:43:50.778Z,12.75
2023-04-23T19:46:18.793Z,13.80
2023-04-23T19:48:47.009Z,12.35
2023-04-23T19:51:14.990Z,12.38
2023-04-23T19:53:43.292Z,14.55
2023-04-23T19:56:13.463Z,13.45
2023-04-23T19:58:41.543Z,12.83
2023-04-23T20:01:11.378Z,12.77
2023-04-23T20:03:40.180Z,10.95
2023-04-23T20:06:08.271Z,13.35
2023-04-23T20:08:44.072Z,14.48
2023-04-23T20:11:12.279Z,15.73
2023-04-23T20:13:43.335Z,12.32
2023-04-23T20:16:12.730Z,9.10
2023-04-23T20:18:40.788Z,9.55
2023-04-23T20:21:09.898Z,10.93
2023-04-23T20:23:38.044Z,9.20
2023-04-23T20:26:07.841Z,10.27
2023-04-23T20:28:35.946Z,11.45
2023-04-23T20:31:04.451Z,11.02
2023-04-23T20:33:33.446Z,9.85
2023-04-23T20:36:02.337Z,11.43
2023-04-23T20:38:33.746Z,7.47
2023-04-23T20:41:03.072Z,9.93
2023-04-23T20:43:33.556Z,10.80
2023-04-23T20:46:02.727Z,11.25
2023-04-23T20:48:31.184Z,8.57
2023-04-23T20:51:00.005Z,8.15
2023-04-23T20:53:29.168Z,9.38
2023-04-23T20:55:57.412Z,9.40
2023-04-23T20:58:25.321Z,8.98
2023-04-23T21:00:53.398Z,11.10
2023-04-23T21:03:21.601Z,9.05
2023-04-23T21:05:51.633Z,7.65
2023-04-23T21:08:19.646Z,8.88
2023-04-23T21:10:47.566Z,11.38
2023-04-23T21:13:15.584Z,7.73
2023-04-23T21:15:44.079Z,9.65
2023-04-23T21:18:12.103Z,7.03
2023-04-23T21:20:40.077Z,10.90
2023-04-23T21:23:09.199Z,7.82
2023-04-23T21:25:37.144Z,9.77
2023-04-23T21:28:06.669Z,9.65
2023-04-23T21:30:49.571Z,8.88
2023-04-23T21:33:19.540Z,8.13
2023-04-23T21:35:48.485Z,7.60
2023-04-23T21:38:16.825Z,10.70
2023-04-23T21:40:46.412Z,7.38
2023-04-23T21:43:15.969Z,9.13
2023-04-23T21:45:44.010Z,5.88
2023-04-23T21:48:12.018Z,7.40
2023-04-23T21:50:40.264Z,7.77
2023-04-23T21:53:09.035Z,7.03
2023-04-23T21:55:37.150Z,9.52
2023-04-23T21:58:16.662Z,7.95
2023-04-23T22:00:48.423Z,7.18
2023-04-23T22:03:30.891Z,10.40
2023-04-23T22:06:04.966Z,8.23
2023-04-23T22:08:33.845Z,7.57
2023-04-23T22:11:02.110Z,7.30
2023-04-23T22:13:29.869Z,11.65
2023-04-23T22:15:57.721Z,9.23
2023-04-23T22:18:26.532Z,7.75
2023-04-23T22:20:54.783Z,11.65
2023-04-23T22:23:22.671Z,7.65
2023-04-23T22:25:50.867Z,6.78
2023-04-23T22:28:20.757Z,8.33
2023-04-23T22:30:48.927Z,8.90
2023-04-23T22:33:16.964Z,7.43
2023-04-23T22:35:45.026Z,7.03
2023-04-23T22:38:13.028Z,11.75
2023-04-23T22:40:41.231Z,8.83
2023-04-23T22:43:09.160Z,10.68
2023-04-23T22:45:37.218Z,9.43
2023-04-23T22:48:05.145Z,9.00
2023-04-23T22:50:33.251Z,10.93
2023-04-23T22:53:01.228Z,7.40
2023-04-23T22:55:29.325Z,9.77
2023-04-23T22:57:57.335Z,10.00
2023-04-23T23:00:25.380Z,9.13
2023-04-23T23:02:53.364Z,8.77
2023-04-23T23:05:21.903Z,8.97
2023-04-23T23:07:49.718Z,8.13
2023-04-23T23:10:17.895Z,11.63
2023-04-23T23:12:45.841Z,8.77
2023-04-23T23:15:13.702Z,8.77
2023-04-23T23:17:41.618Z,12.17
2023-04-23T23:20:10.250Z,9.60
2023-04-23T23:22:38.194Z,12.15
2023-04-23T23:25:08.035Z,9.75
2023-04-23T23:27:36.145Z,8.63
2023-04-23T23:30:06.516Z,8.77
2023-04-23T23:32:34.629Z,7.35
2023-04-23T23:35:03.238Z,8.18
2023-04-23T23:37:31.250Z,12.43
2023-04-23T23:39:59.131Z,9.65
2023-04-23T23:42:27.212Z,8.90
2023-04-23T23:44:55.114Z,10.57
2023-04-23T23:47:23.236Z,9.30
2023-04-23T23:49:51.377Z,10.48
2023-04-23T23:52:19.428Z,10.90
2023-04-23T23:54:47.190Z,8.37
2023-04-23T23:57:15.602Z,13.65
2023-04-23T23:59:43.626Z,10.25
